sensor_id;sensor_type;location;lat;lon;timestamp;temperature;humidity
32534;DHT22;18973;48.580;8.912;2023-11-21T00:00:19;8.50;99.90
32534;DHT22;18973;48.580;8.912;2023-11-21T00:02:45;8.50;99.90
32534;DHT22;18973;48.580;8.912;2023-11-21T00:05:13;8.50;99.90
32534;DHT22;18973;48.580;8.912;2023-11-21T00:07:43;8.40;99.90
32534;DHT22;18973;48.580;8.912;2023-11-21T00:10:10;8.50;99.90
32534;DHT22;18973;48.580;8.912;2023-11-21T00:12:37;8.40;99.90
32534;DHT22;18973;48.580;8.912;2023-11-21T00:15:03;8.30;99.90
32534;DHT22;18973;48.580;8.912;2023-11-21T00:17:33;8.30;99.90
32534;DHT22;18973;48.580;8.912;2023-11-21T00:19:59;8.20;99.90
32534;DHT22;18973;48.580;8.912;2023-11-21T00:22:25;8.30;99.90
32534;DHT22;18973;48.580;8.912;2023-11-21T00:24:51;8.40;99.90
32534;DHT22;18973;48.580;8.912;2023-11-21T00:27:16;8.30;99.90
32534;DHT22;18973;48.580;8.912;2023-11-21T00:29:42;8.40;99.90
32534;DHT22;18973;48.580;8.912;2023-11-21T00:32:08;8.40;99.90
32534;DHT22;18973;48.580;8.912;2023-11-21T00:34:34;8.40;99.90
32534;DHT22;18973;48.580;8.912;2023-11-21T00:37:00;8.40;99.90
32534;DHT22;18973;48.580;8.912;2023-11-21T00:39:25;8.30;99.90
32534;DHT22;18973;48.580;8.912;2023-11-21T00:41:52;8.40;99.90
32534;DHT22;18973;48.580;8.912;2023-11-21T00:44:18;8.50;99.90
32534;DHT22;18973;48.580;8.912;2023-11-21T00:46:44;8.50;99.90
32534;DHT22;18973;48.580;8.912;2023-11-21T00:49:09;8.60;99.90
32534;DHT22;18973;48.580;8.912;2023-11-21T00:51:35;8.50;99.90
32534;DHT22;18973;48.580;8.912;2023-11-21T00:54:01;8.60;99.90
32534;DHT22;18973;48.580;8.912;2023-11-21T00:56:27;8.60;99.90
32534;DHT22;18973;48.580;8.912;2023-11-21T00:58:53;8.60;99.90
32534;DHT22;18973;48.580;8.912;2023-11-21T01:01:19;8.60;99.90
32534;DHT22;18973;48.580;8.912;2023-11-21T01:03:48;8.60;99.90
32534;DHT22;18973;48.580;8.912;2023-11-21T01:06:15;8.60;99.90
32534;DHT22;18973;48.580;8.912;2023-11-21T01:08:40;8.70;99.90
32534;DHT22;18973;48.580;8.912;2023-11-21T01:11:06;8.70;99.90
32534;DHT22;18973;48.580;8.912;2023-11-21T01:13:37;8.60;99.90
32534;DHT22;18973;48.580;8.912;2023-11-21T01:16:03;8.60;99.90
32534;DHT22;18973;48.580;8.912;2023-11-21T01:18:29;8.60;99.90
32534;DHT22;18973;48.580;8.912;2023-11-21T01:20:55;8.50;99.90
32534;DHT22;18973;48.580;8.912;2023-11-21T01:23:21;8.40;99.90
32534;DHT22;18973;48.580;8.912;2023-11-21T01:25:46;8.30;99.90
32534;DHT22;18973;48.580;8.912;2023-11-21T01:28:12;8.30;99.90
32534;DHT22;18973;48.580;8.912;2023-11-21T01:30:38;8.30;99.90
32534;DHT22;18973;48.580;8.912;2023-11-21T01:33:04;8.40;99.90
32534;DHT22;18973;48.580;8.912;2023-11-21T01:35:32;8.40;99.90
32534;DHT22;18973;48.580;8.912;2023-11-21T01:37:59;8.40;99.90
32534;DHT22;18973;48.580;8.912;2023-11-21T01:40:25;8.40;99.90
32534;DHT22;18973;48.580;8.912;2023-11-21T01:42:52;8.40;99.90
32534;DHT22;18973;48.580;8.912;2023-11-21T01:45:18;8.50;99.90
32534;DHT22;18973;48.580;8.912;2023-11-21T01:47:44;8.40;99.90
32534;DHT22;18973;48.580;8.912;2023-11-21T01:50:14;8.40;99.90
32534;DHT22;18973;48.580;8.912;2023-11-21T01:52:43;8.40;99.90
32534;DHT22;18973;48.580;8.912;2023-11-21T01:55:10;8.30;99.90
32534;DHT22;18973;48.580;8.912;2023-11-21T01:57:38;8.40;99.90
32534;DHT22;18973;48.580;8.912;2023-11-21T02:00:04;8.20;99.90
32534;DHT22;18973;48.580;8.912;2023-11-21T02:02:42;8.20;99.90
32534;DHT22;18973;48.580;8.912;2023-11-21T02:05:10;8.30;99.90
32534;DHT22;18973;48.580;8.912;2023-11-21T02:07:38;8.40;99.90
32534;DHT22;18973;48.580;8.912;2023-11-21T02:10:04;8.30;99.90
32534;DHT22;18973;48.580;8.912;2023-11-21T02:12:31;8.30;99.90
32534;DHT22;18973;48.580;8.912;2023-11-21T02:14:56;8.20;99.90
32534;DHT22;18973;48.580;8.912;2023-11-21T02:17:22;8.10;99.90
32534;DHT22;18973;48.580;8.912;2023-11-21T02:19:48;8.00;99.90
32534;DHT22;18973;48.580;8.912;2023-11-21T02:22:17;8.00;99.90
32534;DHT22;18973;48.580;8.912;2023-11-21T02:24:45;8.00;99.90
32534;DHT22;18973;48.580;8.912;2023-11-21T02:27:13;7.90;99.90
32534;DHT22;18973;48.580;8.912;2023-11-21T02:29:39;7.80;99.90
32534;DHT22;18973;48.580;8.912;2023-11-21T02:32:05;7.90;99.90
32534;DHT22;18973;48.580;8.912;2023-11-21T02:34:31;8.10;99.90
32534;DHT22;18973;48.580;8.912;2023-11-21T02:36:56;8.00;99.90
32534;DHT22;18973;48.580;8.912;2023-11-21T02:39:22;8.10;99.90
32534;DHT22;18973;48.580;8.912;2023-11-21T02:41:49;8.20;99.90
32534;DHT22;18973;48.580;8.912;2023-11-21T02:44:15;8.10;99.90
32534;DHT22;18973;48.580;8.912;2023-11-21T02:46:41;8.20;99.90
32534;DHT22;18973;48.580;8.912;2023-11-21T02:49:06;8.10;99.90
32534;DHT22;18973;48.580;8.912;2023-11-21T02:51:33;8.10;99.90
32534;DHT22;18973;48.580;8.912;2023-11-21T02:53:59;8.00;99.90
32534;DHT22;18973;48.580;8.912;2023-11-21T02:56:26;8.20;99.90
32534;DHT22;18973;48.580;8.912;2023-11-21T02:58:54;8.20;99.90
32534;DHT22;18973;48.580;8.912;2023-11-21T03:01:20;8.10;99.90
32534;DHT22;18973;48.580;8.912;2023-11-21T03:03:46;8.20;99.90
32534;DHT22;18973;48.580;8.912;2023-11-21T03:06:13;8.20;99.90
32534;DHT22;18973;48.580;8.912;2023-11-21T03:08:38;8.40;99.90
32534;DHT22;18973;48.580;8.912;2023-11-21T03:11:04;8.40;99.90
32534;DHT22;18973;48.580;8.912;2023-11-21T03:13:30;8.30;99.90
32534;DHT22;18973;48.580;8.912;2023-11-21T03:15:55;8.30;99.90
32534;DHT22;18973;48.580;8.912;2023-11-21T03:18:21;8.30;99.90
32534;DHT22;18973;48.580;8.912;2023-11-21T03:20:54;8.10;99.90
32534;DHT22;18973;48.580;8.912;2023-11-21T03:23:19;8.10;99.90
32534;DHT22;18973;48.580;8.912;2023-11-21T03:25:45;8.10;99.90
32534;DHT22;18973;48.580;8.912;2023-11-21T03:28:11;8.10;99.90
32534;DHT22;18973;48.580;8.912;2023-11-21T03:30:37;8.20;99.90
32534;DHT22;18973;48.580;8.912;2023-11-21T03:33:02;8.10;99.90
32534;DHT22;18973;48.580;8.912;2023-11-21T03:35:28;8.00;99.90
32534;DHT22;18973;48.580;8.912;2023-11-21T03:37:54;8.00;99.90
32534;DHT22;18973;48.580;8.912;2023-11-21T03:40:20;8.00;99.90
32534;DHT22;18973;48.580;8.912;2023-11-21T03:42:48;8.10;99.90
32534;DHT22;18973;48.580;8.912;2023-11-21T03:45:14;7.90;99.90
32534;DHT22;18973;48.580;8.912;2023-11-21T03:47:41;8.00;99.90
32534;DHT22;18973;48.580;8.912;2023-11-21T03:50:07;8.00;99.90
32534;DHT22;18973;48.580;8.912;2023-11-21T03:52:34;8.00;99.90
32534;DHT22;18973;48.580;8.912;2023-11-21T03:55:04;8.00;99.90
32534;DHT22;18973;48.580;8.912;2023-11-21T03:57:29;8.00;99.90
32534;DHT22;18973;48.580;8.912;2023-11-21T03:59:55;8.20;99.90
32534;DHT22;18973;48.580;8.912;2023-11-21T04:02:21;8.30;99.90
32534;DHT22;18973;48.580;8.912;2023-11-21T04:04:46;8.20;99.90
32534;DHT22;18973;48.580;8.912;2023-11-21T04:07:12;8.00;99.90
32534;DHT22;18973;48.580;8.912;2023-11-21T04:09:39;8.10;99.90
32534;DHT22;18973;48.580;8.912;2023-11-21T04:12:05;8.10;99.90
32534;DHT22;18973;48.580;8.912;2023-11-21T04:14:31;8.20;99.90
32534;DHT22;18973;48.580;8.912;2023-11-21T04:16:57;8.20;99.90
32534;DHT22;18973;48.580;8.912;2023-11-21T04:19:23;8.20;99.90
32534;DHT22;18973;48.580;8.912;2023-11-21T04:21:48;8.20;99.90
32534;DHT22;18973;48.580;8.912;2023-11-21T04:24:14;8.30;99.90
32534;DHT22;18973;48.580;8.912;2023-11-21T04:26:40;8.20;99.90
32534;DHT22;18973;48.580;8.912;2023-11-21T04:29:06;8.20;99.90
32534;DHT22;18973;48.580;8.912;2023-11-21T04:31:31;8.30;99.90
32534;DHT22;18973;48.580;8.912;2023-11-21T04:33:57;8.20;99.90
32534;DHT22;18973;48.580;8.912;2023-11-21T04:36:23;8.00;99.90
32534;DHT22;18973;48.580;8.912;2023-11-21T04:38:48;8.10;99.90
32534;DHT22;18973;48.580;8.912;2023-11-21T04:41:14;8.00;99.90
32534;DHT22;18973;48.580;8.912;2023-11-21T04:43:40;8.00;99.90
32534;DHT22;18973;48.580;8.912;2023-11-21T04:46:05;8.10;99.90
32534;DHT22;18973;48.580;8.912;2023-11-21T04:48:32;8.00;99.90
32534;DHT22;18973;48.580;8.912;2023-11-21T04:50:58;8.00;99.90
32534;DHT22;18973;48.580;8.912;2023-11-21T04:53:24;8.00;99.90
32534;DHT22;18973;48.580;8.912;2023-11-21T04:55:49;8.10;99.90
32534;DHT22;18973;48.580;8.912;2023-11-21T04:58:15;8.10;99.90
32534;DHT22;18973;48.580;8.912;2023-11-21T05:00:41;8.10;99.90
32534;DHT22;18973;48.580;8.912;2023-11-21T05:03:07;7.90;99.90
32534;DHT22;18973;48.580;8.912;2023-11-21T05:05:33;7.80;99.90
32534;DHT22;18973;48.580;8.912;2023-11-21T05:08:01;7.80;99.90
32534;DHT22;18973;48.580;8.912;2023-11-21T05:10:28;7.90;99.90
32534;DHT22;18973;48.580;8.912;2023-11-21T05:12:54;7.80;99.90
32534;DHT22;18973;48.580;8.912;2023-11-21T05:15:21;7.80;99.90
32534;DHT22;18973;48.580;8.912;2023-11-21T05:17:47;7.90;99.90
32534;DHT22;18973;48.580;8.912;2023-11-21T05:20:16;7.90;99.90
32534;DHT22;18973;48.580;8.912;2023-11-21T05:22:49;7.90;99.90
32534;DHT22;18973;48.580;8.912;2023-11-21T05:25:16;7.80;99.90
32534;DHT22;18973;48.580;8.912;2023-11-21T05:27:44;7.80;99.90
32534;DHT22;18973;48.580;8.912;2023-11-21T05:30:11;7.70;99.90
32534;DHT22;18973;48.580;8.912;2023-11-21T05:32:37;7.80;99.90
32534;DHT22;18973;48.580;8.912;2023-11-21T05:35:03;7.90;99.90
32534;DHT22;18973;48.580;8.912;2023-11-21T05:37:35;7.90;99.90
32534;DHT22;18973;48.580;8.912;2023-11-21T05:40:01;7.90;99.90
32534;DHT22;18973;48.580;8.912;2023-11-21T05:42:31;7.80;99.90
32534;DHT22;18973;48.580;8.912;2023-11-21T05:44:57;7.90;99.90
32534;DHT22;18973;48.580;8.912;2023-11-21T05:47:24;8.00;99.90
32534;DHT22;18973;48.580;8.912;2023-11-21T05:49:51;8.00;99.90
32534;DHT22;18973;48.580;8.912;2023-11-21T05:52:18;8.00;99.90
32534;DHT22;18973;48.580;8.912;2023-11-21T05:54:43;8.00;99.90
32534;DHT22;18973;48.580;8.912;2023-11-21T05:57:09;8.00;99.90
32534;DHT22;18973;48.580;8.912;2023-11-21T05:59:35;7.90;99.90
32534;DHT22;18973;48.580;8.912;2023-11-21T06:02:01;7.80;99.90
32534;DHT22;18973;48.580;8.912;2023-11-21T06:04:27;7.80;99.90
32534;DHT22;18973;48.580;8.912;2023-11-21T06:06:53;7.70;99.90
32534;DHT22;18973;48.580;8.912;2023-11-21T06:09:19;7.60;99.90
32534;DHT22;18973;48.580;8.912;2023-11-21T06:11:46;7.60;99.90
32534;DHT22;18973;48.580;8.912;2023-11-21T06:14:11;7.70;99.90
32534;DHT22;18973;48.580;8.912;2023-11-21T06:16:37;7.70;99.90
32534;DHT22;18973;48.580;8.912;2023-11-21T06:19:03;7.90;99.90
32534;DHT22;18973;48.580;8.912;2023-11-21T06:21:28;7.80;99.90
32534;DHT22;18973;48.580;8.912;2023-11-21T06:23:56;7.80;99.90
32534;DHT22;18973;48.580;8.912;2023-11-21T06:26:22;7.70;99.90
32534;DHT22;18973;48.580;8.912;2023-11-21T06:28:48;7.60;99.90
32534;DHT22;18973;48.580;8.912;2023-11-21T06:31:16;7.50;99.90
32534;DHT22;18973;48.580;8.912;2023-11-21T06:33:43;7.40;99.90
32534;DHT22;18973;48.580;8.912;2023-11-21T06:36:09;7.50;99.90
32534;DHT22;18973;48.580;8.912;2023-11-21T06:38:37;7.60;99.90
32534;DHT22;18973;48.580;8.912;2023-11-21T06:41:03;7.70;99.90
32534;DHT22;18973;48.580;8.912;2023-11-21T06:43:30;7.80;99.90
32534;DHT22;18973;48.580;8.912;2023-11-21T06:45:57;7.90;99.90
32534;DHT22;18973;48.580;8.912;2023-11-21T06:48:23;8.00;99.90
32534;DHT22;18973;48.580;8.912;2023-11-21T06:50:48;8.00;99.90
32534;DHT22;18973;48.580;8.912;2023-11-21T06:53:14;7.70;99.90
32534;DHT22;18973;48.580;8.912;2023-11-21T06:55:40;7.90;99.90
32534;DHT22;18973;48.580;8.912;2023-11-21T06:58:06;7.90;99.90
32534;DHT22;18973;48.580;8.912;2023-11-21T07:00:34;8.00;99.90
32534;DHT22;18973;48.580;8.912;2023-11-21T07:03:00;8.00;99.90
32534;DHT22;18973;48.580;8.912;2023-11-21T07:05:25;8.10;99.90
32534;DHT22;18973;48.580;8.912;2023-11-21T07:07:51;8.10;99.90
32534;DHT22;18973;48.580;8.912;2023-11-21T07:10:19;8.00;99.90
32534;DHT22;18973;48.580;8.912;2023-11-21T07:12:45;8.10;99.90
32534;DHT22;18973;48.580;8.912;2023-11-21T07:15:11;8.10;99.90
32534;DHT22;18973;48.580;8.912;2023-11-21T07:17:38;8.10;99.90
32534;DHT22;18973;48.580;8.912;2023-11-21T07:20:04;8.10;99.90
32534;DHT22;18973;48.580;8.912;2023-11-21T07:22:29;8.20;99.90
32534;DHT22;18973;48.580;8.912;2023-11-21T07:24:55;8.20;99.90
32534;DHT22;18973;48.580;8.912;2023-11-21T07:27:24;8.30;99.90
32534;DHT22;18973;48.580;8.912;2023-11-21T07:29:50;8.30;99.90
32534;DHT22;18973;48.580;8.912;2023-11-21T07:32:15;8.20;99.90
32534;DHT22;18973;48.580;8.912;2023-11-21T07:34:41;8.30;99.90
32534;DHT22;18973;48.580;8.912;2023-11-21T07:37:07;8.20;99.90
32534;DHT22;18973;48.580;8.912;2023-11-21T07:39:35;8.20;99.90
32534;DHT22;18973;48.580;8.912;2023-11-21T07:42:01;8.30;99.90
32534;DHT22;18973;48.580;8.912;2023-11-21T07:44:28;8.40;99.90
32534;DHT22;18973;48.580;8.912;2023-11-21T07:46:54;8.30;99.90
32534;DHT22;18973;48.580;8.912;2023-11-21T07:49:23;8.40;99.90
32534;DHT22;18973;48.580;8.912;2023-11-21T07:51:49;8.40;99.90
32534;DHT22;18973;48.580;8.912;2023-11-21T07:54:15;8.50;99.90
32534;DHT22;18973;48.580;8.912;2023-11-21T07:56:41;8.60;99.90
32534;DHT22;18973;48.580;8.912;2023-11-21T07:59:07;8.60;99.90
32534;DHT22;18973;48.580;8.912;2023-11-21T08:01:33;8.60;99.90
32534;DHT22;18973;48.580;8.912;2023-11-21T08:03:59;8.50;99.90
32534;DHT22;18973;48.580;8.912;2023-11-21T08:06:31;8.40;99.90
32534;DHT22;18973;48.580;8.912;2023-11-21T08:08:58;8.50;99.90
32534;DHT22;18973;48.580;8.912;2023-11-21T08:11:24;8.40;99.90
32534;DHT22;18973;48.580;8.912;2023-11-21T08:13:49;8.60;99.90
32534;DHT22;18973;48.580;8.912;2023-11-21T08:16:15;8.40;99.90
32534;DHT22;18973;48.580;8.912;2023-11-21T08:18:42;8.30;99.90
32534;DHT22;18973;48.580;8.912;2023-11-21T08:21:08;8.30;99.90
32534;DHT22;18973;48.580;8.912;2023-11-21T08:23:34;8.50;99.90
32534;DHT22;18973;48.580;8.912;2023-11-21T08:26:00;8.50;99.90
32534;DHT22;18973;48.580;8.912;2023-11-21T08:28:25;8.50;99.90
32534;DHT22;18973;48.580;8.912;2023-11-21T08:30:54;8.50;99.90
32534;DHT22;18973;48.580;8.912;2023-11-21T08:33:20;8.50;99.90
32534;DHT22;18973;48.580;8.912;2023-11-21T08:35:45;8.50;99.90
32534;DHT22;18973;48.580;8.912;2023-11-21T08:38:12;8.60;99.90
32534;DHT22;18973;48.580;8.912;2023-11-21T08:40:38;8.70;99.90
32534;DHT22;18973;48.580;8.912;2023-11-21T08:43:04;8.70;99.90
32534;DHT22;18973;48.580;8.912;2023-11-21T08:45:33;8.70;99.90
32534;DHT22;18973;48.580;8.912;2023-11-21T08:48:02;8.80;99.90
32534;DHT22;18973;48.580;8.912;2023-11-21T08:50:28;8.80;99.90
32534;DHT22;18973;48.580;8.912;2023-11-21T08:52:54;8.70;99.90
32534;DHT22;18973;48.580;8.912;2023-11-21T08:55:20;8.70;99.90
32534;DHT22;18973;48.580;8.912;2023-11-21T08:57:45;8.80;99.90
32534;DHT22;18973;48.580;8.912;2023-11-21T09:00:14;8.80;99.90
32534;DHT22;18973;48.580;8.912;2023-11-21T09:02:43;8.70;99.90
32534;DHT22;18973;48.580;8.912;2023-11-21T09:05:10;8.80;99.90
32534;DHT22;18973;48.580;8.912;2023-11-21T09:07:36;8.90;99.90
32534;DHT22;18973;48.580;8.912;2023-11-21T09:10:05;8.90;99.90
32534;DHT22;18973;48.580;8.912;2023-11-21T09:12:35;8.90;99.90
32534;DHT22;18973;48.580;8.912;2023-11-21T09:15:06;8.90;99.90
32534;DHT22;18973;48.580;8.912;2023-11-21T09:17:33;8.90;99.90
32534;DHT22;18973;48.580;8.912;2023-11-21T09:19:59;8.90;99.90
32534;DHT22;18973;48.580;8.912;2023-11-21T09:22:25;9.00;99.90
32534;DHT22;18973;48.580;8.912;2023-11-21T09:24:54;9.10;99.90
32534;DHT22;18973;48.580;8.912;2023-11-21T09:27:19;9.10;99.90
32534;DHT22;18973;48.580;8.912;2023-11-21T09:29:47;9.10;99.90
32534;DHT22;18973;48.580;8.912;2023-11-21T09:32:13;9.20;99.90
32534;DHT22;18973;48.580;8.912;2023-11-21T09:34:41;9.20;99.90
32534;DHT22;18973;48.580;8.912;2023-11-21T09:37:07;9.20;99.90
32534;DHT22;18973;48.580;8.912;2023-11-21T09:39:34;9.30;99.90
32534;DHT22;18973;48.580;8.912;2023-11-21T09:42:15;9.30;99.90
32534;DHT22;18973;48.580;8.912;2023-11-21T09:44:51;9.30;99.90
32534;DHT22;18973;48.580;8.912;2023-11-21T09:47:21;9.30;99.90
32534;DHT22;18973;48.580;8.912;2023-11-21T09:49:48;9.40;99.90
32534;DHT22;18973;48.580;8.912;2023-11-21T09:52:27;9.40;99.90
32534;DHT22;18973;48.580;8.912;2023-11-21T09:54:54;9.30;99.90
32534;DHT22;18973;48.580;8.912;2023-11-21T09:57:23;9.40;99.90
32534;DHT22;18973;48.580;8.912;2023-11-21T09:59:53;9.40;99.90
32534;DHT22;18973;48.580;8.912;2023-11-21T10:02:25;9.40;99.90
32534;DHT22;18973;48.580;8.912;2023-11-21T10:04:52;9.40;99.90
32534;DHT22;18973;48.580;8.912;2023-11-21T10:07:19;9.50;99.90
32534;DHT22;18973;48.580;8.912;2023-11-21T10:09:47;9.40;99.90
32534;DHT22;18973;48.580;8.912;2023-11-21T10:12:15;9.40;99.90
32534;DHT22;18973;48.580;8.912;2023-11-21T10:14:41;9.40;99.90
32534;DHT22;18973;48.580;8.912;2023-11-21T10:17:10;9.40;99.90
32534;DHT22;18973;48.580;8.912;2023-11-21T10:19:38;9.40;99.90
32534;DHT22;18973;48.580;8.912;2023-11-21T10:22:05;9.40;99.90
32534;DHT22;18973;48.580;8.912;2023-11-21T10:24:32;9.40;99.90
32534;DHT22;18973;48.580;8.912;2023-11-21T10:26:58;9.40;99.90
32534;DHT22;18973;48.580;8.912;2023-11-21T10:29:29;9.50;99.90
32534;DHT22;18973;48.580;8.912;2023-11-21T10:31:55;9.60;99.90
32534;DHT22;18973;48.580;8.912;2023-11-21T10:34:24;9.60;99.90
32534;DHT22;18973;48.580;8.912;2023-11-21T10:36:52;9.60;99.90
32534;DHT22;18973;48.580;8.912;2023-11-21T10:39:19;9.60;99.90
32534;DHT22;18973;48.580;8.912;2023-11-21T10:41:46;9.70;99.90
32534;DHT22;18973;48.580;8.912;2023-11-21T10:44:16;9.70;99.90
32534;DHT22;18973;48.580;8.912;2023-11-21T10:46:53;9.70;99.90
32534;DHT22;18973;48.580;8.912;2023-11-21T10:49:25;9.60;99.90
32534;DHT22;18973;48.580;8.912;2023-11-21T10:51:55;9.60;99.90
32534;DHT22;18973;48.580;8.912;2023-11-21T10:54:22;9.60;99.90
32534;DHT22;18973;48.580;8.912;2023-11-21T10:56:49;9.70;99.90
32534;DHT22;18973;48.580;8.912;2023-11-21T10:59:17;9.70;99.90
32534;DHT22;18973;48.580;8.912;2023-11-21T11:01:45;9.70;99.90
32534;DHT22;18973;48.580;8.912;2023-11-21T11:04:11;9.70;99.90
32534;DHT22;18973;48.580;8.912;2023-11-21T11:06:54;9.80;99.90
32534;DHT22;18973;48.580;8.912;2023-11-21T11:09:22;9.80;99.90
32534;DHT22;18973;48.580;8.912;2023-11-21T11:11:48;9.80;99.90
32534;DHT22;18973;48.580;8.912;2023-11-21T11:14:14;9.90;99.90
32534;DHT22;18973;48.580;8.912;2023-11-21T11:16:41;9.80;99.90
32534;DHT22;18973;48.580;8.912;2023-11-21T11:19:09;9.80;99.90
32534;DHT22;18973;48.580;8.912;2023-11-21T11:24:36;9.60;99.90
32534;DHT22;18973;48.580;8.912;2023-11-21T11:38:37;10.00;99.90
32534;DHT22;18973;48.580;8.912;2023-11-21T11:41:04;10.00;99.90
32534;DHT22;18973;48.580;8.912;2023-11-21T11:43:31;9.90;99.90
32534;DHT22;18973;48.580;8.912;2023-11-21T11:46:03;10.00;99.90
32534;DHT22;18973;48.580;8.912;2023-11-21T11:48:29;9.80;99.90
32534;DHT22;18973;48.580;8.912;2023-11-21T11:51:12;10.00;99.90
32534;DHT22;18973;48.580;8.912;2023-11-21T11:53:41;10.10;99.90
32534;DHT22;18973;48.580;8.912;2023-11-21T11:56:28;10.00;99.90
32534;DHT22;18973;48.580;8.912;2023-11-21T11:58:58;9.80;99.90
32534;DHT22;18973;48.580;8.912;2023-11-21T12:01:27;9.90;99.90
32534;DHT22;18973;48.580;8.912;2023-11-21T12:06:41;10.10;99.90
32534;DHT22;18973;48.580;8.912;2023-11-21T12:09:19;10.10;99.90
32534;DHT22;18973;48.580;8.912;2023-11-21T12:11:46;9.90;99.90
32534;DHT22;18973;48.580;8.912;2023-11-21T12:14:13;9.80;99.90
32534;DHT22;18973;48.580;8.912;2023-11-21T12:16:39;9.60;99.90
32534;DHT22;18973;48.580;8.912;2023-11-21T12:19:05;9.60;99.90
32534;DHT22;18973;48.580;8.912;2023-11-21T12:21:31;9.50;99.90
32534;DHT22;18973;48.580;8.912;2023-11-21T12:23:58;9.60;99.90
32534;DHT22;18973;48.580;8.912;2023-11-21T12:26:27;9.70;99.90
32534;DHT22;18973;48.580;8.912;2023-11-21T12:28:53;11.80;99.90
32534;DHT22;18973;48.580;8.912;2023-11-21T12:31:22;13.30;99.90
32534;DHT22;18973;48.580;8.912;2023-11-21T12:33:48;14.10;99.90
32534;DHT22;18973;48.580;8.912;2023-11-21T12:36:14;13.50;99.90
32534;DHT22;18973;48.580;8.912;2023-11-21T12:38:40;12.50;99.90
32534;DHT22;18973;48.580;8.912;2023-11-21T12:41:07;11.80;99.90
32534;DHT22;18973;48.580;8.912;2023-11-21T12:43:33;11.30;99.90
32534;DHT22;18973;48.580;8.912;2023-11-21T12:46:13;10.70;99.90
32534;DHT22;18973;48.580;8.912;2023-11-21T12:48:44;10.60;99.90
32534;DHT22;18973;48.580;8.912;2023-11-21T12:51:11;10.40;99.90
32534;DHT22;18973;48.580;8.912;2023-11-21T12:53:38;10.50;99.90
32534;DHT22;18973;48.580;8.912;2023-11-21T12:56:11;10.50;99.90
32534;DHT22;18973;48.580;8.912;2023-11-21T12:58:38;10.60;99.90
32534;DHT22;18973;48.580;8.912;2023-11-21T13:01:08;10.60;99.90
32534;DHT22;18973;48.580;8.912;2023-11-21T13:03:46;10.50;99.90
32534;DHT22;18973;48.580;8.912;2023-11-21T13:06:17;10.40;99.90
32534;DHT22;18973;48.580;8.912;2023-11-21T13:08:44;10.30;99.90
32534;DHT22;18973;48.580;8.912;2023-11-21T13:11:11;10.20;99.90
32534;DHT22;18973;48.580;8.912;2023-11-21T13:13:36;10.20;99.90
32534;DHT22;18973;48.580;8.912;2023-11-21T13:16:06;10.10;99.90
32534;DHT22;18973;48.580;8.912;2023-11-21T13:18:33;10.10;99.90
32534;DHT22;18973;48.580;8.912;2023-11-21T13:21:04;10.00;99.90
32534;DHT22;18973;48.580;8.912;2023-11-21T13:23:41;9.90;99.90
32534;DHT22;18973;48.580;8.912;2023-11-21T13:26:07;10.00;99.90
32534;DHT22;18973;48.580;8.912;2023-11-21T13:28:35;10.00;99.90
32534;DHT22;18973;48.580;8.912;2023-11-21T13:31:02;10.00;99.90
32534;DHT22;18973;48.580;8.912;2023-11-21T13:33:47;10.10;99.90
32534;DHT22;18973;48.580;8.912;2023-11-21T13:36:21;10.10;99.90
32534;DHT22;18973;48.580;8.912;2023-11-21T13:38:49;10.00;99.90
32534;DHT22;18973;48.580;8.912;2023-11-21T13:41:15;9.90;99.90
32534;DHT22;18973;48.580;8.912;2023-11-21T13:43:42;9.90;99.90
32534;DHT22;18973;48.580;8.912;2023-11-21T13:46:16;10.00;99.90
32534;DHT22;18973;48.580;8.912;2023-11-21T13:48:48;10.00;99.90
32534;DHT22;18973;48.580;8.912;2023-11-21T13:51:19;10.00;99.90
32534;DHT22;18973;48.580;8.912;2023-11-21T13:53:49;10.10;99.90
32534;DHT22;18973;48.580;8.912;2023-11-21T13:56:19;10.10;99.90
32534;DHT22;18973;48.580;8.912;2023-11-21T13:58:50;10.00;99.90
32534;DHT22;18973;48.580;8.912;2023-11-21T14:01:23;10.10;99.90
32534;DHT22;18973;48.580;8.912;2023-11-21T14:03:55;10.10;99.90
32534;DHT22;18973;48.580;8.912;2023-11-21T14:06:46;10.20;99.90
32534;DHT22;18973;48.580;8.912;2023-11-21T14:09:25;10.10;99.90
32534;DHT22;18973;48.580;8.912;2023-11-21T14:11:55;9.90;99.90
32534;DHT22;18973;48.580;8.912;2023-11-21T14:14:24;9.90;99.90
32534;DHT22;18973;48.580;8.912;2023-11-21T14:16:50;9.80;99.90
32534;DHT22;18973;48.580;8.912;2023-11-21T14:19:17;9.60;99.90
32534;DHT22;18973;48.580;8.912;2023-11-21T14:21:47;9.40;99.90
32534;DHT22;18973;48.580;8.912;2023-11-21T14:24:14;9.30;99.90
32534;DHT22;18973;48.580;8.912;2023-11-21T14:26:43;9.30;99.90
32534;DHT22;18973;48.580;8.912;2023-11-21T14:29:12;9.30;99.90
32534;DHT22;18973;48.580;8.912;2023-11-21T14:31:40;9.10;99.90
32534;DHT22;18973;48.580;8.912;2023-11-21T14:34:07;9.10;99.90
32534;DHT22;18973;48.580;8.912;2023-11-21T14:36:34;8.90;99.90
32534;DHT22;18973;48.580;8.912;2023-11-21T14:39:00;8.80;99.90
32534;DHT22;18973;48.580;8.912;2023-11-21T14:41:25;8.90;99.90
32534;DHT22;18973;48.580;8.912;2023-11-21T14:43:53;8.80;99.90
32534;DHT22;18973;48.580;8.912;2023-11-21T14:46:19;8.90;99.90
32534;DHT22;18973;48.580;8.912;2023-11-21T14:48:45;8.90;99.90
32534;DHT22;18973;48.580;8.912;2023-11-21T14:51:25;8.80;99.90
32534;DHT22;18973;48.580;8.912;2023-11-21T14:53:50;8.80;99.90
32534;DHT22;18973;48.580;8.912;2023-11-21T14:56:23;8.90;99.90
32534;DHT22;18973;48.580;8.912;2023-11-21T14:58:54;9.00;99.90
32534;DHT22;18973;48.580;8.912;2023-11-21T15:01:26;8.90;99.90
32534;DHT22;18973;48.580;8.912;2023-11-21T15:04:21;9.00;99.90
32534;DHT22;18973;48.580;8.912;2023-11-21T15:06:59;9.00;99.90
32534;DHT22;18973;48.580;8.912;2023-11-21T15:09:25;9.00;99.90
32534;DHT22;18973;48.580;8.912;2023-11-21T15:11:57;9.00;99.90
32534;DHT22;18973;48.580;8.912;2023-11-21T15:14:29;9.20;99.90
32534;DHT22;18973;48.580;8.912;2023-11-21T15:17:00;9.10;99.90
32534;DHT22;18973;48.580;8.912;2023-11-21T15:19:26;9.10;99.90
32534;DHT22;18973;48.580;8.912;2023-11-21T15:21:54;9.10;99.90
32534;DHT22;18973;48.580;8.912;2023-11-21T15:24:20;9.10;99.90
32534;DHT22;18973;48.580;8.912;2023-11-21T15:26:46;9.00;99.90
32534;DHT22;18973;48.580;8.912;2023-11-21T15:29:11;9.00;99.90
32534;DHT22;18973;48.580;8.912;2023-11-21T15:31:39;8.90;99.90
32534;DHT22;18973;48.580;8.912;2023-11-21T15:34:09;9.00;99.90
32534;DHT22;18973;48.580;8.912;2023-11-21T15:36:35;9.00;99.90
32534;DHT22;18973;48.580;8.912;2023-11-21T15:39:01;8.90;99.90
32534;DHT22;18973;48.580;8.912;2023-11-21T15:41:27;8.80;99.90
32534;DHT22;18973;48.580;8.912;2023-11-21T15:43:53;8.80;99.90
32534;DHT22;18973;48.580;8.912;2023-11-21T15:46:19;8.80;99.90
32534;DHT22;18973;48.580;8.912;2023-11-21T15:48:44;8.80;99.90
32534;DHT22;18973;48.580;8.912;2023-11-21T15:51:16;8.80;99.90
32534;DHT22;18973;48.580;8.912;2023-11-21T15:53:42;8.80;99.90
32534;DHT22;18973;48.580;8.912;2023-11-21T15:56:08;8.80;99.90
32534;DHT22;18973;48.580;8.912;2023-11-21T15:58:39;8.80;99.90
32534;DHT22;18973;48.580;8.912;2023-11-21T16:01:09;8.70;99.90
32534;DHT22;18973;48.580;8.912;2023-11-21T16:03:37;8.60;99.90